Time;durP1;ratioP1;P1;durP2;ratioP2;P2;SDS_P1;SDS_P2;PMS_P1;PMS_P2;Temp;Humidity;BMP_temperature;BMP_pressure;BME280_temperature;BME280_humidity;BME280_pressure;Samples;Min_cycle;Max_cycle;Signal;HPM_P1;HPM_P2
2021/05/09 00:00:31;;;;;;;;;;;19.30;49.00;;;;;;5019662;28;19925;-66
2021/05/09 00:02:56;;;;;;;;;;;19.20;48.90;;;;;;5011909;28;19928;-65
2021/05/09 00:05:22;;;;;;;;;;;19.20;48.90;;;;;;5011878;28;19928;-65
2021/05/09 00:07:47;;;;;;;;;;;19.30;49.00;;;;;;5021017;28;19921;-66
2021/05/09 00:10:13;;;;;;;;;;;19.30;48.90;;;;;;5015687;28;20088;-66
2021/05/09 00:12:38;;;;;;;;;;;19.30;48.90;;;;;;5023768;28;19951;-66
2021/05/09 00:15:07;;;;;;;;;;;19.30;48.80;;;;;;5024777;28;19921;-65
2021/05/09 00:17:33;;;;;;;;;;;19.30;48.70;;;;;;5020800;28;20454;-66
2021/05/09 00:19:58;;;;;;;;;;;19.30;48.70;;;;;;5023249;28;19933;-66
2021/05/09 00:22:24;;;;;;;;;;;19.30;48.60;;;;;;5016197;28;20311;-66
2021/05/09 00:24:49;;;;;;;;;;;19.30;48.60;;;;;;5020572;28;19951;-66
2021/05/09 00:27:14;;;;;;;;;;;19.40;48.60;;;;;;5023427;28;19917;-66
2021/05/09 00:29:40;;;;;;;;;;;19.40;48.60;;;;;;5022125;28;19917;-66
2021/05/09 00:32:05;;;;;;;;;;;19.40;48.60;;;;;;5006846;28;20346;-66
2021/05/09 00:34:31;;;;;;;;;;;19.40;48.60;;;;;;5023215;28;19917;-66
2021/05/09 00:36:56;;;;;;;;;;;19.30;48.50;;;;;;5023091;28;20326;-67
2021/05/09 00:39:22;;;;;;;;;;;19.40;48.50;;;;;;5022862;28;19924;-65
2021/05/09 00:41:47;;;;;;;;;;;19.40;48.50;;;;;;5018003;28;19921;-66
2021/05/09 00:44:13;;;;;;;;;;;19.40;48.50;;;;;;5022754;28;19921;-66
2021/05/09 00:46:38;;;;;;;;;;;19.40;48.50;;;;;;5022318;28;19917;-65
2021/05/09 00:49:03;;;;;;;;;;;19.40;48.50;;;;;;5023219;28;19944;-66
2021/05/09 00:51:29;;;;;;;;;;;19.30;48.40;;;;;;5003913;28;19923;-65
2021/05/09 00:53:54;;;;;;;;;;;19.40;48.50;;;;;;5004777;28;19917;-66
2021/05/09 00:56:20;;;;;;;;;;;19.40;48.50;;;;;;5018812;28;19917;-64
2021/05/09 00:58:46;;;;;;;;;;;19.40;48.50;;;;;;5009862;28;20296;-65
2021/05/09 01:01:11;;;;;;;;;;;19.40;48.40;;;;;;4995750;28;19932;-66
2021/05/09 01:03:37;;;;;;;;;;;19.40;48.40;;;;;;5023144;28;20467;-65
2021/05/09 01:06:02;;;;;;;;;;;19.40;48.40;;;;;;5021188;28;19924;-63
2021/05/09 01:08:28;;;;;;;;;;;19.40;48.40;;;;;;5006118;28;19927;-66
2021/05/09 01:10:54;;;;;;;;;;;19.40;48.30;;;;;;5009595;28;19928;-65
2021/05/09 01:13:21;;;;;;;;;;;19.40;48.40;;;;;;5017180;28;20439;-66
2021/05/09 01:15:46;;;;;;;;;;;19.40;48.30;;;;;;5000909;28;19921;-67
2021/05/09 01:18:12;;;;;;;;;;;19.40;48.30;;;;;;5022138;28;19924;-66
2021/05/09 01:20:37;;;;;;;;;;;19.40;48.30;;;;;;5022479;28;19929;-66
2021/05/09 01:23:03;;;;;;;;;;;19.40;48.30;;;;;;5022634;28;19968;-64
2021/05/09 01:25:28;;;;;;;;;;;19.40;48.30;;;;;;5014467;28;19940;-65
2021/05/09 01:27:55;;;;;;;;;;;19.40;48.30;;;;;;5023001;28;19995;-62
2021/05/09 01:30:20;;;;;;;;;;;19.40;48.30;;;;;;5023314;28;19925;-66
2021/05/09 01:32:46;;;;;;;;;;;19.40;48.30;;;;;;5020183;28;19917;-66
2021/05/09 01:35:11;;;;;;;;;;;19.40;48.30;;;;;;5008387;28;19917;-66
2021/05/09 01:37:37;;;;;;;;;;;19.40;48.30;;;;;;5018137;28;19924;-65
2021/05/09 01:40:04;;;;;;;;;;;19.40;48.30;;;;;;5008523;28;20296;-64
2021/05/09 01:42:29;;;;;;;;;;;19.40;48.30;;;;;;5019232;28;20591;-66
2021/05/09 01:44:55;;;;;;;;;;;19.40;48.20;;;;;;5023108;28;19922;-66
2021/05/09 01:47:21;;;;;;;;;;;19.40;48.20;;;;;;5022129;28;20303;-66
2021/05/09 01:49:46;;;;;;;;;;;19.40;48.20;;;;;;5026119;28;19960;-66
2021/05/09 01:52:11;;;;;;;;;;;19.40;48.20;;;;;;5024509;28;19917;-67
2021/05/09 01:54:37;;;;;;;;;;;19.40;48.20;;;;;;5008241;28;19917;-65
2021/05/09 01:57:03;;;;;;;;;;;19.40;48.20;;;;;;5024865;28;19980;-65
2021/05/09 01:59:28;;;;;;;;;;;19.40;48.20;;;;;;5020155;28;20500;-64
2021/05/09 02:01:54;;;;;;;;;;;19.40;48.20;;;;;;5023978;28;19917;-65
2021/05/09 02:04:19;;;;;;;;;;;19.40;48.20;;;;;;5025741;28;19924;-66
2021/05/09 02:06:44;;;;;;;;;;;19.30;48.10;;;;;;5020425;28;19926;-65
2021/05/09 02:09:10;;;;;;;;;;;19.40;48.20;;;;;;5025716;28;19918;-64
2021/05/09 02:11:35;;;;;;;;;;;19.40;48.20;;;;;;5025625;28;20672;-60
2021/05/09 02:14:01;;;;;;;;;;;19.40;48.20;;;;;;5018881;28;19964;-66
2021/05/09 02:16:26;;;;;;;;;;;19.40;48.20;;;;;;5023987;28;19918;-65
2021/05/09 02:18:52;;;;;;;;;;;19.40;48.20;;;;;;5026636;28;19921;-66
2021/05/09 02:21:17;;;;;;;;;;;19.30;48.20;;;;;;5024437;28;20402;-65
2021/05/09 02:23:42;;;;;;;;;;;19.30;48.10;;;;;;5025536;28;19952;-63
2021/05/09 02:26:08;;;;;;;;;;;19.40;48.20;;;;;;5021702;28;19917;-65
2021/05/09 02:28:33;;;;;;;;;;;19.30;48.10;;;;;;5024707;28;19968;-65
2021/05/09 02:30:59;;;;;;;;;;;19.30;48.30;;;;;;5022872;28;20446;-66
2021/05/09 02:33:24;;;;;;;;;;;19.30;48.10;;;;;;5028024;28;19918;-65
2021/05/09 02:35:50;;;;;;;;;;;19.30;48.10;;;;;;5026442;28;19921;-66
2021/05/09 02:38:15;;;;;;;;;;;19.30;48.00;;;;;;5023805;28;19925;-65
2021/05/09 02:40:41;;;;;;;;;;;19.30;48.10;;;;;;5026324;28;20349;-65
2021/05/09 02:43:06;;;;;;;;;;;19.40;48.10;;;;;;5026661;28;20576;-65
2021/05/09 02:45:32;;;;;;;;;;;19.30;48.00;;;;;;5012641;28;19917;-65
2021/05/09 02:47:57;;;;;;;;;;;19.30;48.00;;;;;;5025864;28;19918;-66
2021/05/09 02:50:23;;;;;;;;;;;19.30;48.00;;;;;;5024541;28;20403;-65
2021/05/09 02:52:48;;;;;;;;;;;19.30;48.00;;;;;;5025049;28;19917;-65
2021/05/09 02:55:14;;;;;;;;;;;19.30;48.00;;;;;;5024297;28;19918;-63
2021/05/09 02:57:39;;;;;;;;;;;19.30;48.60;;;;;;5022578;28;19917;-65
2021/05/09 03:00:05;;;;;;;;;;;19.30;48.20;;;;;;5016592;28;19921;-65
2021/05/09 03:02:30;;;;;;;;;;;19.30;48.00;;;;;;5024640;28;20302;-65
2021/05/09 03:04:56;;;;;;;;;;;19.30;48.00;;;;;;5025161;28;19918;-66
2021/05/09 03:07:21;;;;;;;;;;;19.30;48.00;;;;;;5023883;28;19924;-65
2021/05/09 03:09:47;;;;;;;;;;;19.30;48.10;;;;;;5022870;28;19924;-65
2021/05/09 03:12:12;;;;;;;;;;;19.30;48.00;;;;;;5024688;28;19924;-65
2021/05/09 03:14:38;;;;;;;;;;;19.30;48.00;;;;;;5024815;28;19917;-65
2021/05/09 03:17:03;;;;;;;;;;;19.30;48.00;;;;;;5024738;28;20288;-65
2021/05/09 03:19:29;;;;;;;;;;;19.30;48.10;;;;;;5023955;28;19975;-65
2021/05/09 03:21:54;;;;;;;;;;;19.30;48.10;;;;;;5024837;28;19948;-65
2021/05/09 03:24:19;;;;;;;;;;;19.30;48.10;;;;;;5009380;28;20299;-64
2021/05/09 03:26:45;;;;;;;;;;;19.30;48.10;;;;;;5024573;28;19967;-62
2021/05/09 03:29:10;;;;;;;;;;;19.30;48.10;;;;;;5024849;28;19932;-65
2021/05/09 03:31:36;;;;;;;;;;;19.30;48.10;;;;;;5024364;28;19927;-66
2021/05/09 03:34:01;;;;;;;;;;;19.30;48.10;;;;;;5017143;28;19925;-66
2021/05/09 03:36:27;;;;;;;;;;;19.30;48.10;;;;;;5018151;28;19918;-65
2021/05/09 03:38:52;;;;;;;;;;;19.30;48.10;;;;;;5015985;28;19921;-66
2021/05/09 03:41:18;;;;;;;;;;;19.30;48.10;;;;;;5022041;28;19925;-66
2021/05/09 03:43:43;;;;;;;;;;;19.30;48.10;;;;;;5023134;28;20015;-66
2021/05/09 03:46:09;;;;;;;;;;;19.30;48.20;;;;;;5025234;28;19968;-65
2021/05/09 03:48:34;;;;;;;;;;;19.30;48.20;;;;;;5021411;28;19924;-65
2021/05/09 03:51:00;;;;;;;;;;;19.30;48.20;;;;;;5011976;28;19917;-65
2021/05/09 03:53:27;;;;;;;;;;;19.30;48.20;;;;;;4999385;28;20388;-60
2021/05/09 03:55:52;;;;;;;;;;;19.30;48.10;;;;;;5019954;28;19921;-64
2021/05/09 03:58:18;;;;;;;;;;;19.30;48.20;;;;;;5014151;28;19926;-65
2021/05/09 04:00:43;;;;;;;;;;;19.30;48.10;;;;;;5014308;28;19979;-66
2021/05/09 04:03:19;;;;;;;;;;;19.30;48.20;;;;;;5023515;28;20420;-65
2021/05/09 04:05:48;;;;;;;;;;;19.30;48.10;;;;;;5023113;28;19952;-66
2021/05/09 04:08:13;;;;;;;;;;;19.30;48.20;;;;;;5023777;28;19928;-65
2021/05/09 04:10:39;;;;;;;;;;;19.30;48.20;;;;;;5023847;28;19917;-61
2021/05/09 04:13:04;;;;;;;;;;;19.20;48.10;;;;;;5017987;28;19925;-61
2021/05/09 04:15:30;;;;;;;;;;;19.30;48.20;;;;;;5023564;28;19917;-65
2021/05/09 04:17:55;;;;;;;;;;;19.30;48.10;;;;;;5023295;28;19963;-65
2021/05/09 04:20:20;;;;;;;;;;;19.30;48.20;;;;;;5022880;28;20461;-65
2021/05/09 04:22:46;;;;;;;;;;;19.30;48.20;;;;;;5023501;28;19917;-64
2021/05/09 04:25:11;;;;;;;;;;;19.30;48.20;;;;;;5020023;28;19929;-65
2021/05/09 04:27:37;;;;;;;;;;;19.30;48.10;;;;;;5021381;28;20004;-65
2021/05/09 04:30:02;;;;;;;;;;;19.30;48.10;;;;;;5009736;28;19941;-61
2021/05/09 04:32:28;;;;;;;;;;;19.30;48.10;;;;;;5005548;28;19925;-65
2021/05/09 04:34:53;;;;;;;;;;;19.30;48.10;;;;;;5023745;28;19917;-66
2021/05/09 04:37:19;;;;;;;;;;;19.30;48.20;;;;;;5021932;28;20351;-66
2021/05/09 04:39:44;;;;;;;;;;;19.30;48.10;;;;;;5022330;28;19931;-66
2021/05/09 04:42:09;;;;;;;;;;;19.30;48.10;;;;;;5023674;28;19957;-66
2021/05/09 04:44:35;;;;;;;;;;;19.30;48.20;;;;;;5022021;28;19921;-65
2021/05/09 04:47:00;;;;;;;;;;;19.30;48.20;;;;;;5005438;28;19941;-65
2021/05/09 04:49:26;;;;;;;;;;;19.30;48.20;;;;;;5013235;28;20000;-65
2021/05/09 04:51:52;;;;;;;;;;;19.30;48.20;;;;;;5023429;28;19922;-65
2021/05/09 04:54:17;;;;;;;;;;;19.30;48.20;;;;;;5015921;28;19937;-65
2021/05/09 04:56:42;;;;;;;;;;;19.30;48.20;;;;;;5019608;28;19925;-64
2021/05/09 04:59:08;;;;;;;;;;;19.30;48.20;;;;;;5025359;28;20376;-65
2021/05/09 05:01:33;;;;;;;;;;;19.30;48.20;;;;;;5024321;28;19987;-65
2021/05/09 05:03:59;;;;;;;;;;;19.30;48.20;;;;;;5022275;28;19918;-63
2021/05/09 05:06:24;;;;;;;;;;;19.30;48.20;;;;;;5023091;28;19948;-65
2021/05/09 05:08:50;;;;;;;;;;;19.30;48.30;;;;;;5026117;28;20212;-66
2021/05/09 05:11:15;;;;;;;;;;;19.30;48.90;;;;;;5022428;28;19932;-66
2021/05/09 05:13:41;;;;;;;;;;;19.30;48.30;;;;;;5022430;28;19952;-65
2021/05/09 05:16:06;;;;;;;;;;;19.30;48.20;;;;;;5010467;28;19921;-65
2021/05/09 05:18:32;;;;;;;;;;;19.30;48.20;;;;;;5022233;28;20001;-65
2021/05/09 05:21:06;;;;;;;;;;;19.40;48.30;;;;;;5016942;28;19936;-65
2021/05/09 05:23:32;;;;;;;;;;;19.40;48.30;;;;;;5017380;28;19921;-65
2021/05/09 05:25:58;;;;;;;;;;;19.30;48.40;;;;;;5022593;28;19932;-65
2021/05/09 05:28:23;;;;;;;;;;;19.30;48.30;;;;;;5022274;28;19918;-65
2021/05/09 05:30:49;;;;;;;;;;;19.30;48.40;;;;;;5019892;28;19943;-62
2021/05/09 05:33:24;;;;;;;;;;;19.30;48.50;;;;;;5022231;28;20590;-61
2021/05/09 05:35:49;;;;;;;;;;;19.30;48.50;;;;;;5016150;28;19972;-65
2021/05/09 05:38:14;;;;;;;;;;;19.30;48.50;;;;;;5021684;28;19921;-65
2021/05/09 05:40:40;;;;;;;;;;;19.30;48.50;;;;;;5022487;28;20392;-64
2021/05/09 05:43:05;;;;;;;;;;;19.30;48.50;;;;;;5022615;28;19925;-65
2021/05/09 05:45:31;;;;;;;;;;;19.30;48.50;;;;;;5014946;28;19917;-65
2021/05/09 05:47:56;;;;;;;;;;;19.30;48.50;;;;;;5022733;28;20354;-65
2021/05/09 05:50:22;;;;;;;;;;;19.30;48.40;;;;;;5020679;28;19925;-65
2021/05/09 05:52:47;;;;;;;;;;;19.30;48.40;;;;;;5022898;28;19921;-66
2021/05/09 05:55:13;;;;;;;;;;;19.30;48.50;;;;;;5016978;28;19917;-65
2021/05/09 05:57:38;;;;;;;;;;;19.30;48.50;;;;;;5014256;28;20458;-67
2021/05/09 06:00:04;;;;;;;;;;;19.30;48.50;;;;;;5018289;28;19921;-66
2021/05/09 06:02:29;;;;;;;;;;;19.30;48.50;;;;;;5022563;28;20008;-67
2021/05/09 06:04:55;;;;;;;;;;;19.30;48.50;;;;;;5022386;28;19924;-65
2021/05/09 06:07:22;;;;;;;;;;;19.30;48.60;;;;;;5021466;28;19917;-68
2021/05/09 06:09:47;;;;;;;;;;;19.30;48.60;;;;;;5016515;28;19928;-66
2021/05/09 06:12:13;;;;;;;;;;;19.30;48.60;;;;;;5018296;28;19917;-64
2021/05/09 06:14:38;;;;;;;;;;;19.40;48.80;;;;;;5014294;28;20768;-66
2021/05/09 06:17:04;;;;;;;;;;;19.40;48.90;;;;;;5025925;28;20004;-66
2021/05/09 06:19:29;;;;;;;;;;;19.40;48.90;;;;;;5025367;28;19921;-66
2021/05/09 06:21:54;;;;;;;;;;;19.30;49.80;;;;;;5022913;28;20379;-66
2021/05/09 06:24:20;;;;;;;;;;;19.30;49.60;;;;;;5011938;28;19952;-65
2021/05/09 06:26:46;;;;;;;;;;;19.30;49.70;;;;;;5025763;28;19932;-66
2021/05/09 06:29:12;;;;;;;;;;;19.30;49.70;;;;;;5023894;28;20618;-66
2021/05/09 06:31:37;;;;;;;;;;;19.30;50.10;;;;;;5026719;28;19917;-65
2021/05/09 06:34:03;;;;;;;;;;;19.30;50.20;;;;;;5026339;28;19925;-66
2021/05/09 06:36:28;;;;;;;;;;;19.30;50.10;;;;;;5014780;28;19956;-63
2021/05/09 06:38:54;;;;;;;;;;;19.30;50.20;;;;;;5022159;28;20400;-65
2021/05/09 06:41:20;;;;;;;;;;;19.30;50.00;;;;;;5023827;28;19925;-62
2021/05/09 06:43:46;;;;;;;;;;;19.30;50.00;;;;;;5025849;28;19918;-64
2021/05/09 06:46:11;;;;;;;;;;;19.30;49.90;;;;;;5025547;28;20788;-66
2021/05/09 06:48:37;;;;;;;;;;;19.30;49.90;;;;;;5016549;28;19929;-66
2021/05/09 06:51:02;;;;;;;;;;;19.30;49.90;;;;;;5024742;28;20423;-65
2021/05/09 06:53:28;;;;;;;;;;;19.30;49.80;;;;;;5023536;28;19956;-66
2021/05/09 06:55:53;;;;;;;;;;;19.30;49.70;;;;;;5026505;28;19917;-66
2021/05/09 06:58:19;;;;;;;;;;;19.30;49.70;;;;;;5004637;28;19921;-66
2021/05/09 07:00:45;;;;;;;;;;;19.30;49.50;;;;;;5025105;28;19974;-66
2021/05/09 07:03:10;;;;;;;;;;;19.30;50.30;;;;;;5026072;28;19953;-64
2021/05/09 07:05:36;;;;;;;;;;;19.30;49.60;;;;;;5028522;28;19988;-63
2021/05/09 07:08:01;;;;;;;;;;;19.30;49.60;;;;;;5028610;28;19986;-64
2021/05/09 07:10:27;;;;;;;;;;;19.30;49.50;;;;;;5024038;28;19959;-64
2021/05/09 07:12:54;;;;;;;;;;;19.30;49.50;;;;;;5025003;28;19925;-66
2021/05/09 07:15:25;;;;;;;;;;;19.30;49.50;;;;;;5006487;28;20550;-65
2021/05/09 07:18:02;;;;;;;;;;;19.30;49.30;;;;;;5020502;28;20382;-65
2021/05/09 07:20:29;;;;;;;;;;;19.40;49.20;;;;;;5023661;28;19928;-64
2021/05/09 07:22:55;;;;;;;;;;;19.40;49.00;;;;;;5016862;28;21503;-65
2021/05/09 07:25:21;;;;;;;;;;;19.40;49.10;;;;;;5024052;28;19917;-65
2021/05/09 07:27:46;;;;;;;;;;;19.40;49.00;;;;;;5022373;28;20015;-63
2021/05/09 07:30:12;;;;;;;;;;;19.40;48.90;;;;;;5021826;28;19971;-64
2021/05/09 07:32:37;;;;;;;;;;;19.40;49.00;;;;;;5017924;28;20009;-63
2021/05/09 07:35:03;;;;;;;;;;;19.30;48.90;;;;;;5012497;28;19965;-65
2021/05/09 07:37:28;;;;;;;;;;;19.30;49.00;;;;;;4997301;28;19943;-64
2021/05/09 07:39:54;;;;;;;;;;;19.30;48.90;;;;;;5018126;28;20575;-66
2021/05/09 07:42:19;;;;;;;;;;;19.30;48.60;;;;;;5013697;28;19932;-66
2021/05/09 07:44:45;;;;;;;;;;;19.30;48.40;;;;;;5007399;28;19922;-65
2021/05/09 07:47:11;;;;;;;;;;;19.40;48.20;;;;;;5016153;28;19921;-66
2021/05/09 07:49:37;;;;;;;;;;;19.30;48.30;;;;;;5024694;28;19947;-66
2021/05/09 07:52:02;;;;;;;;;;;19.30;48.40;;;;;;5025406;28;20366;-65
2021/05/09 07:54:28;;;;;;;;;;;19.40;48.30;;;;;;5022504;28;19928;-65
2021/05/09 07:56:53;;;;;;;;;;;19.30;48.20;;;;;;5015312;28;19917;-65
2021/05/09 07:59:19;;;;;;;;;;;19.40;48.00;;;;;;5020573;28;19924;-66
2021/05/09 08:01:44;;;;;;;;;;;19.40;47.90;;;;;;5021941;28;19947;-66
2021/05/09 08:04:10;;;;;;;;;;;19.40;47.70;;;;;;5024055;28;20392;-66
2021/05/09 08:06:35;;;;;;;;;;;19.40;48.40;;;;;;5023377;28;19917;-66
2021/05/09 08:09:00;;;;;;;;;;;19.30;47.70;;;;;;5017839;28;19971;-67
2021/05/09 08:11:26;;;;;;;;;;;19.30;47.70;;;;;;5019514;28;19952;-65
2021/05/09 08:13:51;;;;;;;;;;;19.30;47.80;;;;;;5021050;28;20530;-67
2021/05/09 08:16:17;;;;;;;;;;;19.30;47.60;;;;;;5019757;28;19927;-66
2021/05/09 08:18:42;;;;;;;;;;;19.30;47.60;;;;;;5016222;28;19917;-66
2021/05/09 08:21:08;;;;;;;;;;;19.30;47.60;;;;;;4999185;28;20577;-67
2021/05/09 08:23:35;;;;;;;;;;;19.30;47.80;;;;;;5022131;28;19943;-67
2021/05/09 08:26:01;;;;;;;;;;;19.30;47.70;;;;;;5014897;28;19936;-67
2021/05/09 08:28:26;;;;;;;;;;;19.30;47.80;;;;;;5023840;28;20540;-67
2021/05/09 08:30:52;;;;;;;;;;;19.30;47.60;;;;;;5005803;28;19921;-66
2021/05/09 08:33:17;;;;;;;;;;;19.30;47.80;;;;;;5017447;28;19921;-66
2021/05/09 08:35:42;;;;;;;;;;;19.30;47.70;;;;;;5022441;28;19964;-67
2021/05/09 08:38:08;;;;;;;;;;;19.30;47.70;;;;;;5020712;28;20303;-67
2021/05/09 08:40:33;;;;;;;;;;;19.30;47.80;;;;;;5018387;28;19922;-66
2021/05/09 08:42:59;;;;;;;;;;;19.30;47.70;;;;;;5022888;28;20387;-64
2021/05/09 08:45:24;;;;;;;;;;;19.30;48.40;;;;;;5012655;28;19917;-67
2021/05/09 08:47:51;;;;;;;;;;;19.30;47.60;;;;;;5015707;28;19921;-69
2021/05/09 08:50:17;;;;;;;;;;;19.30;47.80;;;;;;5022750;28;19926;-67
2021/05/09 08:52:43;;;;;;;;;;;19.30;47.80;;;;;;5004081;28;19921;-66
2021/05/09 08:55:09;;;;;;;;;;;19.30;47.80;;;;;;5015482;28;19926;-65
2021/05/09 08:57:35;;;;;;;;;;;19.30;47.80;;;;;;5021483;28;20534;-66
2021/05/09 09:00:00;;;;;;;;;;;19.30;47.60;;;;;;5021595;28;19936;-67
2021/05/09 09:02:26;;;;;;;;;;;19.30;47.80;;;;;;5023275;28;20056;-67
2021/05/09 09:04:53;;;;;;;;;;;19.30;47.70;;;;;;5015577;28;20389;-67
2021/05/09 09:07:18;;;;;;;;;;;19.30;47.70;;;;;;5013076;28;19936;-67
2021/05/09 09:09:44;;;;;;;;;;;19.30;47.80;;;;;;4998887;28;19921;-66
2021/05/09 09:12:10;;;;;;;;;;;19.30;47.80;;;;;;5024727;28;19921;-67
2021/05/09 09:14:35;;;;;;;;;;;19.30;47.70;;;;;;5018360;28;19923;-67
2021/05/09 09:17:13;;;;;;;;;;;19.30;47.70;;;;;;5006800;28;19925;-67
2021/05/09 09:19:57;;;;;;;;;;;19.30;47.80;;;;;;5020295;28;19931;-68
2021/05/09 09:22:23;;;;;;;;;;;19.30;47.70;;;;;;5020833;28;19921;-62
2021/05/09 09:25:01;;;;;;;;;;;19.30;47.70;;;;;;5016875;28;19995;-67
2021/05/09 09:27:27;;;;;;;;;;;19.30;47.60;;;;;;5018440;28;20317;-67
2021/05/09 09:29:58;;;;;;;;;;;19.40;47.80;;;;;;5016004;28;20038;-66
2021/05/09 09:32:23;;;;;;;;;;;19.40;47.70;;;;;;5019216;28;20688;-67
2021/05/09 09:34:49;;;;;;;;;;;19.30;47.60;;;;;;5014505;28;19980;-66
2021/05/09 09:37:14;;;;;;;;;;;19.30;47.70;;;;;;5021744;28;20384;-65
2021/05/09 09:39:46;;;;;;;;;;;19.40;47.70;;;;;;5014474;28;19925;-67
2021/05/09 09:42:12;;;;;;;;;;;19.40;47.70;;;;;;5021703;28;19963;-65
2021/05/09 09:44:37;;;;;;;;;;;19.30;47.70;;;;;;5022221;28;19987;-65
2021/05/09 09:47:03;;;;;;;;;;;19.30;47.80;;;;;;5003672;28;19925;-66
2021/05/09 09:49:32;;;;;;;;;;;19.30;47.80;;;;;;4999595;28;20177;-67
2021/05/09 09:52:01;;;;;;;;;;;19.30;47.80;;;;;;5018970;28;19917;-68
2021/05/09 09:54:30;;;;;;;;;;;19.30;47.80;;;;;;5009677;28;19918;-65
2021/05/09 09:56:55;;;;;;;;;;;19.30;47.80;;;;;;5024752;28;19932;-65
2021/05/09 09:59:21;;;;;;;;;;;19.30;47.80;;;;;;5009902;28;19925;-65
2021/05/09 10:01:46;;;;;;;;;;;19.30;47.80;;;;;;5021197;28;20555;-68
2021/05/09 10:04:13;;;;;;;;;;;19.30;47.80;;;;;;5019543;28;19944;-67
2021/05/09 10:06:39;;;;;;;;;;;19.30;47.80;;;;;;5001559;28;20558;-67
2021/05/09 10:09:04;;;;;;;;;;;19.30;47.80;;;;;;5017676;28;19921;-64
2021/05/09 10:11:30;;;;;;;;;;;19.30;47.90;;;;;;5021296;28;19917;-63
2021/05/09 10:13:55;;;;;;;;;;;19.30;47.90;;;;;;5021247;28;19924;-65
2021/05/09 10:16:22;;;;;;;;;;;19.30;48.00;;;;;;5020130;28;20506;-66
2021/05/09 10:18:48;;;;;;;;;;;19.30;48.00;;;;;;4999104;28;19917;-66
2021/05/09 10:21:15;;;;;;;;;;;19.30;48.00;;;;;;5019733;28;20361;-67
2021/05/09 10:23:59;;;;;;;;;;;19.30;48.00;;;;;;4997752;28;19964;-66
2021/05/09 10:26:30;;;;;;;;;;;19.30;48.00;;;;;;5021967;28;19921;-64
2021/05/09 10:28:56;;;;;;;;;;;19.30;48.00;;;;;;5016558;28;19918;-66
2021/05/09 10:31:27;;;;;;;;;;;19.30;48.00;;;;;;5027859;28;19928;-65
2021/05/09 10:33:53;;;;;;;;;;;19.30;48.10;;;;;;5020658;28;19921;-67
2021/05/09 10:36:18;;;;;;;;;;;19.30;48.00;;;;;;5024136;28;19971;-65
2021/05/09 10:39:02;;;;;;;;;;;19.20;48.00;;;;;;5018911;28;19917;-67
2021/05/09 10:41:27;;;;;;;;;;;19.20;48.20;;;;;;5020456;28;20015;-67
2021/05/09 10:43:53;;;;;;;;;;;19.30;48.10;;;;;;5025448;28;19924;-65
2021/05/09 10:46:18;;;;;;;;;;;19.20;48.10;;;;;;5020931;28;19921;-67
2021/05/09 10:48:44;;;;;;;;;;;19.20;48.10;;;;;;5023144;28;20303;-65
2021/05/09 10:51:14;;;;;;;;;;;19.30;48.20;;;;;;5017078;28;19959;-65
2021/05/09 10:53:41;;;;;;;;;;;19.30;48.20;;;;;;5019034;28;19940;-64
2021/05/09 10:56:07;;;;;;;;;;;19.20;48.10;;;;;;5021808;28;19917;-65
2021/05/09 10:58:39;;;;;;;;;;;19.20;48.20;;;;;;5025262;28;19924;-63
2021/05/09 11:01:08;;;;;;;;;;;19.20;48.20;;;;;;5025242;28;19928;-66
2021/05/09 11:03:36;;;;;;;;;;;19.20;48.20;;;;;;5024362;28;19952;-65
2021/05/09 11:06:02;;;;;;;;;;;19.20;48.20;;;;;;5004267;28;19932;-67
2021/05/09 11:08:43;;;;;;;;;;;19.20;48.20;;;;;;4995419;28;19986;-68
2021/05/09 11:11:12;;;;;;;;;;;19.30;48.30;;;;;;5015877;28;19929;-65
2021/05/09 11:13:56;;;;;;;;;;;19.20;48.20;;;;;;5014173;28;20019;-68
2021/05/09 11:16:22;;;;;;;;;;;19.20;48.20;;;;;;5019210;28;20015;-67
2021/05/09 11:18:57;;;;;;;;;;;19.20;48.30;;;;;;5024703;28;20009;-67
2021/05/09 11:21:23;;;;;;;;;;;19.20;48.20;;;;;;5013950;28;20297;-68
2021/05/09 11:23:49;;;;;;;;;;;19.20;48.30;;;;;;5023040;28;20020;-66
2021/05/09 11:26:24;;;;;;;;;;;19.20;48.30;;;;;;5018403;28;20303;-67
2021/05/09 11:29:08;;;;;;;;;;;19.20;48.40;;;;;;5018670;28;19925;-65
2021/05/09 11:31:35;;;;;;;;;;;19.30;48.30;;;;;;5016945;28;19917;-68
2021/05/09 11:34:00;;;;;;;;;;;19.20;48.30;;;;;;5023992;28;19917;-68
2021/05/09 11:36:26;;;;;;;;;;;19.20;48.30;;;;;;5024263;28;20011;-67
2021/05/09 11:39:03;;;;;;;;;;;19.20;48.30;;;;;;5018439;28;20387;-68
2021/05/09 11:41:28;;;;;;;;;;;19.20;48.30;;;;;;5020616;28;20273;-67
2021/05/09 11:44:03;;;;;;;;;;;19.30;48.30;;;;;;5023783;28;19924;-68
2021/05/09 11:46:34;;;;;;;;;;;19.20;48.30;;;;;;5022798;28;19921;-67
2021/05/09 11:49:34;;;;;;;;;;;19.30;48.30;;;;;;5022815;28;19921;-67
2021/05/09 11:52:00;;;;;;;;;;;19.30;48.40;;;;;;4964404;28;19921;-68
2021/05/09 11:54:36;;;;;;;;;;;19.30;48.50;;;;;;5023294;28;19918;-68
2021/05/09 11:57:05;;;;;;;;;;;19.30;48.40;;;;;;5022521;28;20008;-67
2021/05/09 11:59:31;;;;;;;;;;;19.30;48.50;;;;;;5022201;28;19918;-66
2021/05/09 12:01:57;;;;;;;;;;;19.30;48.40;;;;;;5023825;28;20019;-67
2021/05/09 12:04:28;;;;;;;;;;;19.30;48.50;;;;;;5017807;28;19928;-67
2021/05/09 12:06:54;;;;;;;;;;;19.30;48.60;;;;;;5023389;28;20369;-67
2021/05/09 12:09:19;;;;;;;;;;;19.30;48.50;;;;;;5024096;28;19928;-67
2021/05/09 12:11:45;;;;;;;;;;;19.30;48.50;;;;;;5018922;28;19971;-66
2021/05/09 12:14:10;;;;;;;;;;;19.30;48.50;;;;;;5023357;28;19917;-67
2021/05/09 12:16:42;;;;;;;;;;;19.30;48.50;;;;;;4989735;28;19917;-67
2021/05/09 12:19:08;;;;;;;;;;;19.30;48.60;;;;;;5017030;28;20380;-66
2021/05/09 12:21:33;;;;;;;;;;;19.30;48.60;;;;;;5023874;28;19921;-66
2021/05/09 12:24:05;;;;;;;;;;;19.30;48.60;;;;;;5007064;28;20330;-67
2021/05/09 12:26:30;;;;;;;;;;;19.30;48.60;;;;;;5010287;28;20278;-67
2021/05/09 12:29:17;;;;;;;;;;;19.30;48.60;;;;;;5021558;28;19971;-63
2021/05/09 12:31:43;;;;;;;;;;;19.30;48.70;;;;;;5011350;28;19917;-67
2021/05/09 12:34:10;;;;;;;;;;;19.30;48.60;;;;;;5016818;28;19921;-67
2021/05/09 12:36:35;;;;;;;;;;;19.30;48.60;;;;;;5015941;28;19924;-68
2021/05/09 12:39:03;;;;;;;;;;;19.30;48.60;;;;;;5018254;28;19917;-66
2021/05/09 12:41:28;;;;;;;;;;;19.30;48.60;;;;;;5022670;28;19925;-67
2021/05/09 12:43:54;;;;;;;;;;;19.30;48.60;;;;;;5015366;28;20612;-67
2021/05/09 12:46:42;;;;;;;;;;;19.40;48.70;;;;;;5020168;28;20432;-66
2021/05/09 12:49:14;;;;;;;;;;;19.30;48.60;;;;;;5020055;28;19925;-66
2021/05/09 12:51:51;;;;;;;;;;;19.40;48.70;;;;;;5006183;28;19947;-68
2021/05/09 12:54:29;;;;;;;;;;;19.30;48.60;;;;;;5022507;28;19921;-67
2021/05/09 12:57:11;;;;;;;;;;;19.40;48.70;;;;;;5017905;28;20011;-67
2021/05/09 12:59:47;;;;;;;;;;;19.40;48.70;;;;;;5023324;28;20359;-67
2021/05/09 13:02:14;;;;;;;;;;;19.30;48.60;;;;;;5006136;28;19929;-67
2021/05/09 13:04:44;;;;;;;;;;;19.40;48.80;;;;;;5021833;28;20020;-67
2021/05/09 13:07:10;;;;;;;;;;;19.40;48.80;;;;;;5003237;28;19941;-67
2021/05/09 13:09:36;;;;;;;;;;;19.40;48.80;;;;;;4995666;28;19924;-67
2021/05/09 13:12:03;;;;;;;;;;;19.40;49.40;;;;;;5018069;28;19918;-65
2021/05/09 13:14:40;;;;;;;;;;;19.40;48.80;;;;;;5009509;28;19924;-66
2021/05/09 13:17:05;;;;;;;;;;;19.40;48.80;;;;;;5021635;28;19971;-65
2021/05/09 13:19:31;;;;;;;;;;;19.40;48.90;;;;;;5022644;28;19917;-67
2021/05/09 13:21:56;;;;;;;;;;;19.40;48.80;;;;;;5022036;28;19927;-65
2021/05/09 13:24:22;;;;;;;;;;;19.40;48.90;;;;;;5004325;28;20360;-68
2021/05/09 13:26:47;;;;;;;;;;;19.40;48.90;;;;;;5015208;28;19929;-67
2021/05/09 13:29:13;;;;;;;;;;;19.40;48.90;;;;;;5018711;28;20445;-67
2021/05/09 13:31:38;;;;;;;;;;;19.40;48.80;;;;;;5019757;28;19921;-67
2021/05/09 13:34:03;;;;;;;;;;;19.40;48.80;;;;;;5022397;28;19917;-68
2021/05/09 13:36:29;;;;;;;;;;;19.40;48.80;;;;;;5022305;28;19963;-67
2021/05/09 13:38:54;;;;;;;;;;;19.50;48.90;;;;;;5014205;28;20299;-68
2021/05/09 13:41:20;;;;;;;;;;;19.50;48.90;;;;;;5012771;28;19921;-67
2021/05/09 13:43:45;;;;;;;;;;;19.50;48.80;;;;;;5022115;28;19925;-63
2021/05/09 13:46:15;;;;;;;;;;;19.50;48.70;;;;;;5022859;28;20531;-65
2021/05/09 13:48:41;;;;;;;;;;;19.50;48.80;;;;;;5020495;28;19930;-67
2021/05/09 13:51:06;;;;;;;;;;;19.50;48.80;;;;;;5022600;28;20668;-67
2021/05/09 13:53:31;;;;;;;;;;;19.50;48.80;;;;;;5018238;28;19917;-68
2021/05/09 13:55:57;;;;;;;;;;;19.50;48.80;;;;;;5011647;28;19917;-67
2021/05/09 13:58:22;;;;;;;;;;;19.50;48.90;;;;;;5015685;28;19990;-70
2021/05/09 14:00:48;;;;;;;;;;;19.50;48.90;;;;;;5022237;28;19921;-67
2021/05/09 14:03:16;;;;;;;;;;;19.50;48.90;;;;;;5016125;28;19918;-68
2021/05/09 14:05:42;;;;;;;;;;;19.50;48.80;;;;;;5019906;28;19953;-68
2021/05/09 14:08:07;;;;;;;;;;;19.50;48.90;;;;;;5020105;28;19924;-67
2021/05/09 14:10:33;;;;;;;;;;;19.50;48.80;;;;;;5014526;28;19917;-63
2021/05/09 14:12:59;;;;;;;;;;;19.50;48.90;;;;;;5022143;28;20403;-65